Time;durP1;ratioP1;P1;durP2;ratioP2;P2;SDS_P1;SDS_P2;PMS_P1;PMS_P2;Temp;Humidity;BMP_temperature;BMP_pressure;BME280_temperature;BME280_humidity;BME280_pressure;Samples;Min_cycle;Max_cycle;Signal;HPM_P1;HPM_P2
2021/07/08 05:24:06;;;;;;;3.13;2.10;;;17.60;99.90;;;;;;5142469;24;20690;-62
2021/07/08 05:26:38;;;;;;;2.87;2.10;;;17.60;99.90;;;;;;5071529;29;20329;-64
2021/07/08 05:29:10;;;;;;;5.18;2.63;;;17.60;99.90;;;;;;5050899;29;20211;-53
2021/07/08 05:31:43;;;;;;;5.67;2.60;;;17.60;99.90;;;;;;5083166;29;20537;-57
2021/07/08 05:34:20;;;;;;;6.90;2.90;;;17.60;99.90;;;;;;5073031;29;20650;-56
2021/07/08 05:36:56;;;;;;;3.53;2.50;;;17.70;99.90;;;;;;5067592;29;20261;-63
2021/07/08 05:39:28;;;;;;;4.27;2.40;;;17.70;99.90;;;;;;5090321;29;20218;-64
2021/07/08 05:42:00;;;;;;;5.03;2.30;;;17.70;99.90;;;;;;5072547;29;20237;-67
2021/07/08 05:44:33;;;;;;;6.15;2.78;;;17.70;99.90;;;;;;5072091;29;20214;-67
2021/07/08 05:47:05;;;;;;;5.88;2.35;;;17.70;99.90;;;;;;5071974;29;20214;-67
2021/07/08 05:49:57;;;;;;;7.37;2.80;;;17.80;99.90;;;;;;5061788;29;20210;-65
2021/07/08 05:52:29;;;;;;;5.40;2.73;;;17.80;99.90;;;;;;5088807;29;20234;-65
2021/07/08 05:55:02;;;;;;;5.70;2.90;;;17.70;99.90;;;;;;5086095;29;20206;-64
2021/07/08 05:57:35;;;;;;;5.38;2.60;;;17.80;99.90;;;;;;5071847;29;20203;-67
2021/07/08 06:00:07;;;;;;;5.13;2.58;;;17.80;99.90;;;;;;5070050;29;20218;-65
2021/07/08 06:02:39;;;;;;;3.57;2.70;;;17.80;99.90;;;;;;5070149;29;20219;-63
2021/07/08 06:05:14;;;;;;;4.30;2.57;;;17.70;99.90;;;;;;5053272;29;20210;-65
2021/07/08 06:07:46;;;;;;;4.55;2.83;;;17.80;99.90;;;;;;5054545;29;20250;-68
2021/07/08 06:10:20;;;;;;;5.33;2.77;;;17.80;99.90;;;;;;5053828;29;20211;-67
2021/07/08 06:12:53;;;;;;;5.37;2.90;;;17.90;99.90;;;;;;5053515;29;20588;-66
2021/07/08 06:15:26;;;;;;;6.97;3.47;;;17.90;99.90;;;;;;5053297;29;20262;-69
2021/07/08 06:17:57;;;;;;;6.35;3.38;;;17.90;99.90;;;;;;5069786;29;20217;-63
2021/07/08 06:20:29;;;;;;;7.90;3.70;;;18.00;99.90;;;;;;5069389;29;20549;-64
2021/07/08 06:23:02;;;;;;;11.15;4.60;;;18.00;99.90;;;;;;5069327;29;20207;-66
2021/07/08 06:25:33;;;;;;;9.90;4.03;;;18.00;99.90;;;;;;5053027;29;20242;-62
2021/07/08 06:28:05;;;;;;;4.38;2.85;;;18.00;99.90;;;;;;5069707;29;20542;-66
2021/07/08 06:30:37;;;;;;;5.65;2.67;;;18.00;99.90;;;;;;5053137;29;20577;-66
2021/07/08 06:33:15;;;;;;;5.90;2.50;;;18.00;99.90;;;;;;5053286;29;20218;-63
2021/07/08 06:35:48;;;;;;;7.45;2.75;;;18.00;99.90;;;;;;5068889;29;20659;-62
2021/07/08 06:38:22;;;;;;;8.67;2.90;;;18.00;99.90;;;;;;5053089;29;20552;-68
2021/07/08 06:40:54;;;;;;;8.40;2.80;;;18.00;99.90;;;;;;5052602;29;20510;-66
2021/07/08 06:43:26;;;;;;;7.63;2.58;;;18.10;99.90;;;;;;5069205;29;20537;-65
2021/07/08 06:46:01;;;;;;;5.15;2.08;;;18.10;99.90;;;;;;5068820;29;20203;-66
2021/07/08 06:48:34;;;;;;;4.10;2.70;;;18.20;99.90;;;;;;5078250;29;20485;-66
2021/07/08 06:51:07;;;;;;;3.42;2.05;;;18.20;99.90;;;;;;5087979;29;20230;-66
2021/07/08 06:53:43;;;;;;;6.80;2.40;;;18.20;99.90;;;;;;5066106;29;20211;-64
2021/07/08 06:56:18;;;;;;;4.32;2.10;;;18.10;99.90;;;;;;5052438;29;20227;-68
2021/07/08 06:58:50;;;;;;;5.20;2.08;;;18.20;99.90;;;;;;5069048;29;20217;-64
2021/07/08 07:01:22;;;;;;;5.53;1.98;;;18.20;99.90;;;;;;5068667;29;20222;-62
2021/07/08 07:03:54;;;;;;;4.45;2.00;;;18.20;99.90;;;;;;5052094;29;20221;-65
2021/07/08 07:06:26;;;;;;;4.87;2.20;;;18.20;99.90;;;;;;5068804;29;20214;-69
2021/07/08 07:09:00;;;;;;;5.57;2.03;;;18.20;99.90;;;;;;5052776;29;20514;-66
2021/07/08 07:11:32;;;;;;;2.57;1.70;;;18.30;99.90;;;;;;5052302;29;20231;-64
2021/07/08 07:14:05;;;;;;;4.93;1.85;;;18.30;99.90;;;;;;5052132;29;20614;-65
2021/07/08 07:16:37;;;;;;;2.58;1.73;;;18.30;99.90;;;;;;5086317;29;20241;-63
2021/07/08 07:19:09;;;;;;;4.35;1.95;;;18.30;99.90;;;;;;5087927;29;20210;-67
2021/07/08 07:21:41;;;;;;;3.63;2.13;;;18.30;99.90;;;;;;5071380;29;20662;-68
2021/07/08 07:24:13;;;;;;;4.88;2.08;;;18.40;99.90;;;;;;5070870;29;20333;-64
2021/07/08 07:26:50;;;;;;;5.10;1.85;;;18.40;99.90;;;;;;5087755;29;20702;-66
2021/07/08 07:29:24;;;;;;;3.55;2.53;;;18.50;99.90;;;;;;5088146;29;20541;-65
2021/07/08 07:31:56;;;;;;;4.00;2.10;;;18.50;99.90;;;;;;5087510;29;20240;-63
2021/07/08 07:34:28;;;;;;;3.92;1.90;;;18.50;99.90;;;;;;5071048;29;20570;-64
2021/07/08 07:37:00;;;;;;;3.20;2.00;;;18.60;99.90;;;;;;5070554;29;20230;-64
2021/07/08 07:39:32;;;;;;;4.03;1.70;;;18.60;99.90;;;;;;5087383;29;20230;-59
2021/07/08 07:42:04;;;;;;;3.80;1.90;;;18.70;99.90;;;;;;5055148;29;20238;-64
2021/07/08 07:44:36;;;;;;;3.50;1.73;;;18.70;99.90;;;;;;5087700;29;20315;-59
2021/07/08 07:47:08;;;;;;;4.32;1.95;;;18.90;99.90;;;;;;5087181;29;20259;-64
2021/07/08 07:49:41;;;;;;;5.50;1.85;;;19.10;99.90;;;;;;5087596;29;20206;-66
2021/07/08 07:52:16;;;;;;;2.85;1.67;;;19.40;99.90;;;;;;5087650;29;20234;-66
2021/07/08 07:54:48;;;;;;;2.10;1.73;;;19.50;99.90;;;;;;5087274;29;20224;-64
2021/07/08 07:57:20;;;;;;;2.20;1.50;;;19.80;99.90;;;;;;5087273;29;20658;-67
2021/07/08 07:59:55;;;;;;;6.63;1.60;;;20.00;99.90;;;;;;5070932;29;20775;-64
2021/07/08 08:02:27;;;;;;;2.15;1.40;;;20.20;99.90;;;;;;5070394;29;20244;-62
2021/07/08 08:10:27;;;;;;;3.17;1.52;;;20.40;99.90;;;;;;5074728;29;20542;-62
2021/07/08 08:13:01;;;;;;;4.03;1.55;;;20.70;99.90;;;;;;5062021;29;20264;-64
2021/07/08 08:15:33;;;;;;;5.45;1.67;;;20.90;99.90;;;;;;5087328;29;20205;-63
2021/07/08 08:18:07;;;;;;;1.63;1.25;;;21.20;99.90;;;;;;5075046;29;20238;-66
2021/07/08 08:20:40;;;;;;;3.35;1.30;;;21.40;99.90;;;;;;5067718;29;20218;-63
2021/07/08 08:23:13;;;;;;;2.90;1.17;;;21.40;99.90;;;;;;5067685;29;20238;-68
2021/07/08 08:25:45;;;;;;;3.67;1.30;;;21.40;99.90;;;;;;5068282;29;20274;-63
2021/07/08 08:28:20;;;;;;;3.58;1.48;;;21.20;99.90;;;;;;5067972;29;20246;-64
2021/07/08 08:30:57;;;;;;;3.92;1.58;;;21.10;99.90;;;;;;5067272;29;20222;-61
2021/07/08 08:33:29;;;;;;;1.38;1.13;;;21.10;99.90;;;;;;5071087;29;20665;-62
2021/07/08 08:36:03;;;;;;;1.48;1.10;;;21.10;99.90;;;;;;5071887;29;20217;-64
2021/07/08 08:38:36;;;;;;;5.95;1.58;;;21.00;99.90;;;;;;5071589;29;20727;-64
2021/07/08 08:41:08;;;;;;;2.10;1.13;;;21.00;99.90;;;;;;5039418;29;20211;-63
2021/07/08 08:43:40;;;;;;;3.17;1.10;;;20.90;99.90;;;;;;5069465;29;20699;-63
2021/07/08 08:46:12;;;;;;;2.85;1.42;;;20.70;99.90;;;;;;5066838;29;20533;-62
2021/07/08 08:48:45;;;;;;;6.32;1.40;;;20.70;99.90;;;;;;5084728;29;20581;-62
2021/07/08 08:51:21;;;;;;;2.00;1.13;;;20.60;99.90;;;;;;5054873;29;20219;-62
2021/07/08 08:53:53;;;;;;;3.47;1.40;;;20.40;99.90;;;;;;5071404;29;20671;-64
2021/07/08 08:56:26;;;;;;;3.03;1.20;;;20.30;99.90;;;;;;5071353;29;20294;-64
2021/07/08 08:58:58;;;;;;;4.88;1.60;;;20.30;99.90;;;;;;5071285;29;20238;-61
2021/07/08 09:01:30;;;;;;;2.70;1.30;;;20.20;99.90;;;;;;5055357;29;20217;-62
2021/07/08 09:04:03;;;;;;;4.75;1.50;;;20.20;99.90;;;;;;5055264;29;20535;-63
2021/07/08 09:06:36;;;;;;;2.55;1.45;;;20.20;99.90;;;;;;5055207;29;20554;-66
2021/07/08 09:09:10;;;;;;;3.60;1.50;;;20.30;99.90;;;;;;5086117;29;20542;-68
2021/07/08 09:11:43;;;;;;;6.82;1.45;;;20.40;99.90;;;;;;5071243;29;20238;-64
2021/07/08 09:14:22;;;;;;;6.70;1.40;;;20.50;99.90;;;;;;5054521;29;20538;-63
2021/07/08 09:16:54;;;;;;;2.65;1.25;;;20.50;99.90;;;;;;5071001;29;20209;-66
2021/07/08 09:19:28;;;;;;;3.28;1.08;;;20.50;99.90;;;;;;5054431;29;20697;-64
2021/07/08 09:22:04;;;;;;;2.20;0.98;;;20.50;99.90;;;;;;5070931;29;20234;-62
2021/07/08 09:24:36;;;;;;;2.55;1.30;;;20.50;99.90;;;;;;5054158;29;20258;-64
2021/07/08 09:27:13;;;;;;;3.97;0.98;;;20.50;99.90;;;;;;5054301;29;20233;-60
2021/07/08 09:29:49;;;;;;;3.95;1.15;;;20.50;99.90;;;;;;5070428;29;20239;-64
2021/07/08 09:32:25;;;;;;;1.27;0.75;;;20.60;99.90;;;;;;5054046;29;20230;-63
2021/07/08 09:34:59;;;;;;;4.50;0.93;;;20.70;99.90;;;;;;5070496;29;20609;-62
2021/07/08 09:37:31;;;;;;;3.05;1.00;;;20.80;99.90;;;;;;5053944;29;20203;-65
2021/07/08 09:40:07;;;;;;;2.10;0.93;;;20.80;99.90;;;;;;5075533;29;20256;-63
2021/07/08 09:42:46;;;;;;;5.75;1.17;;;20.70;99.90;;;;;;5089482;29;20204;-65
2021/07/08 09:45:19;;;;;;;4.40;1.00;;;20.70;99.90;;;;;;5090016;29;20238;-63
2021/07/08 09:47:51;;;;;;;2.08;0.80;;;20.70;99.90;;;;;;5090190;29;20206;-64
2021/07/08 09:50:24;;;;;;;2.22;0.70;;;20.70;99.90;;;;;;5089462;29;20246;-62
2021/07/08 09:53:14;;;;;;;2.42;1.10;;;20.60;99.90;;;;;;5089779;29;20236;-64
2021/07/08 09:56:43;;;;;;;4.20;0.80;;;20.70;99.90;;;;;;5089855;29;20594;-66
2021/07/08 09:58:57;;;;;;;4.72;0.90;;;20.60;99.90;;;;;;5082011;29;20213;-64
2021/07/08 10:01:32;;;;;;;2.28;1.10;;;20.50;99.90;;;;;;5070804;29;20207;-64
2021/07/08 10:04:04;;;;;;;3.83;1.20;;;20.60;99.90;;;;;;5088049;29;20229;-63
2021/07/08 10:06:37;;;;;;;3.35;0.95;;;20.60;99.90;;;;;;5088957;29;20565;-60
2021/07/08 10:09:17;;;;;;;2.28;0.90;;;20.70;99.90;;;;;;5072601;29;20206;-61
2021/07/08 10:11:52;;;;;;;2.45;1.38;;;20.70;99.90;;;;;;5088958;29;20340;-65
2021/07/08 10:14:24;;;;;;;2.53;1.00;;;20.80;99.90;;;;;;5089143;29;20206;-59
2021/07/08 10:16:57;;;;;;;4.13;1.00;;;20.70;99.90;;;;;;5089204;29;20222;-65
2021/07/08 10:19:29;;;;;;;1.23;0.90;;;20.70;99.90;;;;;;5079455;29;20206;-64
2021/07/08 10:22:04;;;;;;;3.08;1.10;;;20.60;99.90;;;;;;5037962;29;20242;-65
2021/07/08 10:24:37;;;;;;;1.80;1.00;;;20.70;99.90;;;;;;5069187;29;20250;-68
2021/07/08 10:27:10;;;;;;;2.05;0.80;;;20.80;99.90;;;;;;5075013;29;20214;-63
2021/07/08 10:29:48;;;;;;;2.45;0.80;;;20.90;99.90;;;;;;5057381;29;20209;-65
2021/07/08 10:32:20;;;;;;;3.03;0.95;;;21.20;99.90;;;;;;5080208;29;20245;-65
2021/07/08 10:34:55;;;;;;;2.10;0.80;;;21.60;99.90;;;;;;5069094;29;20555;-66
2021/07/08 10:37:29;;;;;;;3.72;0.82;;;22.10;99.90;;;;;;5069488;29;20241;-65
2021/07/08 10:40:28;;;;;;;1.83;0.80;;;22.40;99.90;;;;;;5069233;29;20255;-67
2021/07/08 10:43:12;;;;;;;2.60;0.88;;;22.70;99.90;;;;;;5052710;29;20246;-73
2021/07/08 10:45:46;;;;;;;2.53;0.85;;;22.70;99.90;;;;;;5069422;29;20568;-67
2021/07/08 10:48:21;;;;;;;2.10;0.82;;;22.50;99.90;;;;;;5069452;29;20329;-66
2021/07/08 10:50:55;;;;;;;1.80;0.80;;;22.50;99.90;;;;;;5069011;29;20226;-64
2021/07/08 10:53:41;;;;;;;3.00;0.90;;;22.30;99.90;;;;;;5052948;29;20590;-67
2021/07/08 10:56:19;;;;;;;3.72;1.00;;;22.00;99.90;;;;;;5075398;29;20211;-65
2021/07/08 10:58:55;;;;;;;2.13;1.05;;;21.80;99.90;;;;;;5071695;29;20190;-68
2021/07/08 11:01:27;;;;;;;0.90;0.70;;;21.80;99.90;;;;;;5071631;29;20221;-66
2021/07/08 11:04:02;;;;;;;4.00;0.80;;;21.70;99.90;;;;;;5088681;29;20260;-65
2021/07/08 11:06:40;;;;;;;1.42;1.00;;;21.60;99.90;;;;;;5071874;29;20205;-67
2021/07/08 11:09:19;;;;;;;1.27;0.85;;;21.40;99.90;;;;;;5088460;29;20290;-67
2021/07/08 11:11:51;;;;;;;3.55;1.00;;;21.30;99.90;;;;;;5088236;29;20217;-66
2021/07/08 11:14:24;;;;;;;1.17;0.65;;;21.30;99.90;;;;;;5088387;29;20532;-65
2021/07/08 11:17:17;;;;;;;1.35;1.00;;;21.40;99.90;;;;;;5071418;29;20206;-64
2021/07/08 11:19:50;;;;;;;3.38;0.93;;;21.50;99.90;;;;;;5088560;29;20268;-67
2021/07/08 11:22:27;;;;;;;2.63;0.82;;;21.60;99.90;;;;;;5088154;29;20549;-68
2021/07/08 11:25:03;;;;;;;1.65;0.95;;;21.50;99.90;;;;;;5071298;29;20574;-65
2021/07/08 11:27:37;;;;;;;3.53;0.93;;;21.50;99.90;;;;;;5037875;29;20257;-67
2021/07/08 11:30:17;;;;;;;1.75;1.20;;;21.70;99.90;;;;;;5069460;29;20210;-66
2021/07/08 11:32:53;;;;;;;3.15;1.00;;;21.60;99.90;;;;;;5068249;29;20246;-65
2021/07/08 11:35:35;;;;;;;1.45;1.20;;;21.40;99.90;;;;;;5068527;29;20190;-65
2021/07/08 11:38:11;;;;;;;2.00;1.05;;;21.50;99.90;;;;;;5068104;29;20267;-68
2021/07/08 11:40:47;;;;;;;3.63;1.10;;;21.50;99.90;;;;;;5052003;29;20608;-66
2021/07/08 11:43:36;;;;;;;2.13;0.80;;;21.60;99.90;;;;;;5068083;29;20230;-65
2021/07/08 11:46:17;;;;;;;1.67;0.85;;;21.60;99.90;;;;;;5068103;29;20225;-66
2021/07/08 11:48:51;;;;;;;2.45;0.95;;;21.60;99.90;;;;;;5067640;29;20238;-65
2021/07/08 11:51:28;;;;;;;4.30;1.02;;;21.50;99.90;;;;;;5051540;29;20195;-65
2021/07/08 11:54:00;;;;;;;1.50;1.00;;;21.30;99.90;;;;;;5067871;29;20317;-66
2021/07/08 11:56:32;;;;;;;2.35;1.35;;;21.10;99.90;;;;;;5068110;29;20221;-63
2021/07/08 11:59:07;;;;;;;2.90;1.23;;;21.00;99.90;;;;;;5036269;29;20683;-63
2021/07/08 12:01:40;;;;;;;5.00;1.10;;;21.00;99.90;;;;;;5068478;29;20589;-66
2021/07/08 12:04:22;;;;;;;2.40;0.98;;;20.90;99.90;;;;;;5068208;29;20276;-69
2021/07/08 12:06:54;;;;;;;2.03;1.20;;;20.70;99.90;;;;;;5054353;29;20226;-69
2021/07/08 12:09:27;;;;;;;2.40;1.20;;;20.70;99.90;;;;;;5071851;29;20313;-62
2021/07/08 12:12:03;;;;;;;3.50;1.17;;;20.80;99.90;;;;;;5055803;29;20682;-65
2021/07/08 12:14:35;;;;;;;2.45;1.25;;;20.70;99.90;;;;;;5071806;29;20237;-67
2021/07/08 12:17:07;;;;;;;2.70;1.10;;;20.70;99.90;;;;;;5040158;29;20238;-65
2021/07/08 12:20:09;;;;;;;3.63;1.20;;;20.70;99.90;;;;;;5056149;29;20222;-56
2021/07/08 12:22:59;;;;;;;2.95;1.00;;;20.50;99.90;;;;;;5083792;29;20318;-68
2021/07/08 12:25:33;;;;;;;2.70;1.23;;;20.40;99.90;;;;;;5075481;29;20206;-66
2021/07/08 12:28:05;;;;;;;2.17;1.40;;;20.40;99.90;;;;;;5071860;29;20250;-67
2021/07/08 12:30:39;;;;;;;5.20;1.33;;;20.30;99.90;;;;;;5072099;29;20651;-66
2021/07/08 12:33:13;;;;;;;3.33;1.50;;;20.40;99.90;;;;;;5071650;29;20364;-65
2021/07/08 12:35:49;;;;;;;3.08;1.00;;;20.40;99.90;;;;;;5071910;29;20226;-69
2021/07/08 12:38:21;;;;;;;2.50;1.25;;;20.40;99.90;;;;;;5071802;29;20280;-66
2021/07/08 12:41:00;;;;;;;1.88;0.98;;;20.40;99.90;;;;;;5039759;29;20620;-67
2021/07/08 12:43:35;;;;;;;3.85;1.25;;;20.30;99.90;;;;;;5071512;29;20303;-64
2021/07/08 12:46:11;;;;;;;2.85;1.33;;;20.30;99.90;;;;;;5071602;29;20234;-68
2021/07/08 12:48:43;;;;;;;1.50;1.25;;;20.20;99.90;;;;;;5071774;29;20653;-66
2021/07/08 12:51:15;;;;;;;2.85;1.40;;;20.20;99.90;;;;;;5055483;29;20211;-69
2021/07/08 12:53:48;;;;;;;3.30;1.50;;;20.20;99.90;;;;;;5040155;29;20542;-67
2021/07/08 12:56:23;;;;;;;3.13;1.20;;;20.20;99.90;;;;;;5071579;29;20592;-70
2021/07/08 12:58:59;;;;;;;2.30;1.48;;;20.10;99.90;;;;;;5054591;29;20202;-69
2021/07/08 13:01:32;;;;;;;3.15;1.50;;;20.10;99.90;;;;;;5055008;29;20602;-69
2021/07/08 13:04:04;;;;;;;2.03;1.70;;;20.00;99.90;;;;;;5071736;29;20274;-70
2021/07/08 13:06:36;;;;;;;4.07;1.65;;;20.00;99.90;;;;;;5077352;29;20614;-72
2021/07/08 13:09:11;;;;;;;3.80;1.80;;;20.00;99.90;;;;;;5091149;29;20206;-67
2021/07/08 13:11:44;;;;;;;2.58;1.33;;;20.00;99.90;;;;;;5090970;29;20543;-70
2021/07/08 13:14:29;;;;;;;2.70;1.67;;;20.00;99.90;;;;;;5076001;29;20234;-68
2021/07/08 13:17:01;;;;;;;5.45;1.60;;;19.90;99.90;;;;;;5070725;29;20206;-69
2021/07/08 13:19:35;;;;;;;4.05;1.70;;;19.90;99.90;;;;;;5070403;29;20217;-66
2021/07/08 13:22:15;;;;;;;2.80;1.40;;;19.90;99.90;;;;;;5054282;29;20224;-65
2021/07/08 13:24:52;;;;;;;3.65;1.67;;;19.90;99.90;;;;;;5053914;29;20243;-65
2021/07/08 13:27:40;;;;;;;5.40;2.15;;;19.90;99.90;;;;;;5054540;29;20522;-66
2021/07/08 13:30:32;;;;;;;4.20;1.40;;;19.90;99.90;;;;;;5054576;29;20210;-69
2021/07/08 13:33:13;;;;;;;2.92;1.67;;;19.90;99.90;;;;;;5070971;29;20241;-73
2021/07/08 13:35:53;;;;;;;2.95;1.63;;;19.80;99.90;;;;;;5055123;29;20314;-68
2021/07/08 13:38:32;;;;;;;2.47;1.88;;;19.90;99.90;;;;;;5055238;29;20298;-72
2021/07/08 13:41:28;;;;;;;4.35;1.75;;;19.90;99.90;;;;;;5071255;29;20227;-67
2021/07/08 13:44:11;;;;;;;4.63;1.92;;;19.80;99.90;;;;;;5071299;29;20588;-71
2021/07/08 13:46:46;;;;;;;3.92;2.40;;;19.80;99.90;;;;;;5054170;29;20270;-65
2021/07/08 13:49:23;;;;;;;4.72;1.90;;;19.80;99.90;;;;;;5070061;29;20296;-68
2021/07/08 13:51:59;;;;;;;4.40;2.17;;;19.70;99.90;;;;;;5070152;29;20234;-69
2021/07/08 13:54:34;;;;;;;4.55;2.17;;;19.70;99.90;;;;;;5070441;29;20231;-70
2021/07/08 13:57:14;;;;;;;4.80;2.40;;;19.80;99.90;;;;;;5053611;29;20238;-69
2021/07/08 13:59:57;;;;;;;3.20;2.00;;;19.80;99.90;;;;;;5070277;29;20191;-67
2021/07/08 14:02:31;;;;;;;4.22;2.30;;;19.80;99.90;;;;;;5070170;29;20529;-69
2021/07/08 14:05:06;;;;;;;3.83;2.40;;;19.80;99.90;;;;;;5038168;29;20210;-69
2021/07/08 14:07:38;;;;;;;4.55;2.17;;;19.80;99.90;;;;;;5069785;29;20233;-68
2021/07/08 14:10:10;;;;;;;4.38;2.50;;;19.80;99.90;;;;;;5053162;29;20225;-67
2021/07/08 14:12:44;;;;;;;3.70;2.45;;;19.80;99.90;;;;;;5022358;29;20231;-66
2021/07/08 14:15:18;;;;;;;6.07;2.70;;;19.80;99.90;;;;;;5070802;29;20626;-65
2021/07/08 14:17:50;;;;;;;6.35;2.72;;;19.90;99.90;;;;;;5053945;29;20245;-68
2021/07/08 14:20:23;;;;;;;6.10;2.58;;;19.90;99.90;;;;;;5069843;29;20650;-65
2021/07/08 14:22:55;;;;;;;5.70;2.40;;;19.90;99.90;;;;;;5069419;29;20523;-66
2021/07/08 14:25:28;;;;;;;5.43;2.85;;;19.90;99.90;;;;;;5033992;29;20203;-64
2021/07/08 14:28:03;;;;;;;3.50;2.20;;;19.90;99.90;;;;;;5033654;29;20246;-66
2021/07/08 14:30:35;;;;;;;3.65;2.60;;;19.90;99.90;;;;;;5048791;29;20211;-65
2021/07/08 14:33:07;;;;;;;3.25;2.50;;;19.90;99.90;;;;;;5033581;29;20323;-66
2021/07/08 14:35:39;;;;;;;6.10;2.75;;;19.90;99.90;;;;;;5044985;29;20203;-67
2021/07/08 14:38:14;;;;;;;4.00;2.58;;;19.90;99.90;;;;;;5049937;29;20241;-65
2021/07/08 14:40:49;;;;;;;2.95;2.15;;;19.90;99.90;;;;;;5050143;29;20211;-68
2021/07/08 14:43:26;;;;;;;5.20;2.53;;;19.80;99.90;;;;;;5050166;29;20231;-62
2021/07/08 14:46:04;;;;;;;6.20;2.60;;;19.80;99.90;;;;;;5050345;29;20229;-67
2021/07/08 14:48:37;;;;;;;4.90;2.63;;;19.80;99.90;;;;;;5049667;29;20337;-68
2021/07/08 14:51:13;;;;;;;3.03;2.47;;;19.80;99.90;;;;;;5049876;29;20219;-65
2021/07/08 14:53:45;;;;;;;2.78;2.17;;;19.80;99.90;;;;;;5049866;29;20643;-67
2021/07/08 14:56:17;;;;;;;5.25;2.83;;;19.70;99.90;;;;;;5050054;29;20520;-63
2021/07/08 14:58:49;;;;;;;2.72;2.47;;;19.70;99.90;;;;;;5033233;29;20325;-66
2021/07/08 15:01:22;;;;;;;3.38;2.58;;;19.60;99.90;;;;;;5033153;29;20235;-65
2021/07/08 15:03:54;;;;;;;4.15;3.20;;;19.50;99.90;;;;;;5049603;29;20235;-68
2021/07/08 15:06:28;;;;;;;7.25;2.65;;;19.50;99.90;;;;;;5049458;29;20237;-65
2021/07/08 15:09:00;;;;;;;4.50;2.70;;;19.40;99.90;;;;;;5033024;29;20253;-64
2021/07/08 15:11:34;;;;;;;4.07;2.85;;;19.40;99.90;;;;;;5033024;29;20208;-65
2021/07/08 15:14:07;;;;;;;5.25;3.00;;;19.40;99.90;;;;;;5048946;29;20246;-64
2021/07/08 15:16:42;;;;;;;5.32;3.03;;;19.30;99.90;;;;;;5049411;29;20216;-67
2021/07/08 15:19:16;;;;;;;5.07;3.30;;;19.30;99.90;;;;;;5017662;29;20235;-65
2021/07/08 15:21:49;;;;;;;4.82;3.33;;;19.30;99.90;;;;;;5049089;29;20283;-65
2021/07/08 15:24:21;;;;;;;6.10;3.53;;;19.20;99.90;;;;;;5059442;29;20255;-63
2021/07/08 15:26:56;;;;;;;5.30;3.25;;;19.20;99.90;;;;;;5068423;29;20215;-67
2021/07/08 15:29:28;;;;;;;4.63;3.08;;;19.20;99.90;;;;;;5058208;29;20253;-64
2021/07/08 15:32:00;;;;;;;3.83;2.50;;;19.20;99.90;;;;;;5068374;29;20624;-65
2021/07/08 15:34:32;;;;;;;5.03;2.63;;;19.00;99.90;;;;;;5067159;29;20328;-65
2021/07/08 15:37:06;;;;;;;3.00;2.65;;;19.00;99.90;;;;;;5068026;29;20226;-65
2021/07/08 15:39:39;;;;;;;4.82;2.17;;;19.00;99.90;;;;;;5067861;29;20234;-68
2021/07/08 15:42:16;;;;;;;3.00;2.03;;;18.80;99.90;;;;;;5066970;29;20214;-65
2021/07/08 15:44:48;;;;;;;3.03;1.83;;;18.80;99.90;;;;;;5067800;29;20234;-64
2021/07/08 15:47:20;;;;;;;2.28;1.40;;;18.70;99.90;;;;;;5067271;29;20238;-64
2021/07/08 15:49:55;;;;;;;3.90;1.80;;;18.60;99.90;;;;;;5067123;29;20249;-62
2021/07/08 15:52:30;;;;;;;4.95;1.60;;;18.60;99.90;;;;;;5068254;29;20246;-65
2021/07/08 15:55:06;;;;;;;2.50;1.40;;;18.60;99.90;;;;;;5067952;29;20655;-66
2021/07/08 15:57:41;;;;;;;2.83;1.65;;;18.60;99.90;;;;;;5068284;29;20627;-66
2021/07/08 16:00:14;;;;;;;2.60;1.77;;;18.50;99.90;;;;;;5067051;29;20237;-67
2021/07/08 16:02:46;;;;;;;3.22;1.42;;;18.50;99.90;;;;;;5068037;29;20207;-65
2021/07/08 16:05:18;;;;;;;1.98;1.30;;;18.50;99.90;;;;;;5067077;29;20242;-66
2021/07/08 16:07:53;;;;;;;2.20;1.77;;;18.40;99.90;;;;;;5067890;29;20608;-64
2021/07/08 16:10:27;;;;;;;2.13;1.70;;;18.30;99.90;;;;;;5067713;29;20682;-63
2021/07/08 16:13:01;;;;;;;2.55;1.88;;;18.30;99.90;;;;;;5066983;29;20360;-64
2021/07/08 16:15:33;;;;;;;4.07;1.90;;;18.40;99.90;;;;;;5066624;29;20515;-65
2021/07/08 16:18:21;;;;;;;3.90;2.13;;;18.40;99.90;;;;;;5068499;29;20503;-67
2021/07/08 16:20:54;;;;;;;3.17;2.03;;;18.40;99.90;;;;;;5066655;29;20245;-62
2021/07/08 16:23:26;;;;;;;3.45;2.30;;;18.40;99.90;;;;;;5067862;29;20238;-67
2021/07/08 16:26:00;;;;;;;3.70;2.47;;;18.50;99.90;;;;;;5051617;29;20230;-62
2021/07/08 16:28:35;;;;;;;6.63;2.60;;;18.50;99.90;;;;;;5067747;29;20203;-69
2021/07/08 16:31:07;;;;;;;4.90;2.70;;;18.50;99.90;;;;;;5067507;29;20226;-63
2021/07/08 16:33:39;;;;;;;4.28;2.90;;;18.50;99.90;;;;;;5036260;29;20647;-64
2021/07/08 16:36:13;;;;;;;7.05;3.53;;;18.50;99.90;;;;;;5051564;29;20235;-69
2021/07/08 16:38:46;;;;;;;5.22;3.63;;;18.50;99.90;;;;;;5067514;29;20234;-64
2021/07/08 16:41:18;;;;;;;4.22;3.13;;;18.50;99.90;;;;;;5051719;29;20334;-62
2021/07/08 16:43:50;;;;;;;5.10;3.90;;;18.50;99.90;;;;;;5067822;29;20211;-64
2021/07/08 16:46:22;;;;;;;6.40;3.92;;;18.50;99.90;;;;;;5066906;29;20246;-65
2021/07/08 16:48:54;;;;;;;3.80;3.45;;;18.50;99.90;;;;;;5067389;29;20606;-64
2021/07/08 16:51:26;;;;;;;5.32;3.92;;;18.50;99.90;;;;;;5067481;29;20234;-65
2021/07/08 16:53:58;;;;;;;4.25;3.67;;;18.50;99.90;;;;;;5053591;29;20233;-68
2021/07/08 16:56:31;;;;;;;7.13;4.50;;;18.60;99.90;;;;;;5039279;29;20238;-66
2021/07/08 16:59:05;;;;;;;6.35;4.00;;;18.60;99.90;;;;;;5054916;29;20214;-66
2021/07/08 17:01:38;;;;;;;6.47;3.70;;;18.60;99.90;;;;;;5039281;29;20230;-66
2021/07/08 17:04:10;;;;;;;5.63;3.47;;;18.60;99.90;;;;;;5039878;29;20349;-68
2021/07/08 17:06:42;;;;;;;5.82;3.80;;;18.60;99.90;;;;;;5054697;29;20527;-65
2021/07/08 17:09:14;;;;;;;5.07;3.60;;;18.60;99.90;;;;;;5054965;29;20226;-67
2021/07/08 17:11:46;;;;;;;4.93;3.70;;;18.60;99.90;;;;;;5039043;29;20227;-65
2021/07/08 17:14:21;;;;;;;4.57;3.20;;;18.60;99.90;;;;;;5023912;29;20227;-63
2021/07/08 17:16:53;;;;;;;7.70;3.65;;;18.60;99.90;;;;;;5071025;29;20618;-66
2021/07/08 17:19:27;;;;;;;4.10;3.08;;;18.60;99.90;;;;;;5070918;29;20295;-64
2021/07/08 17:21:59;;;;;;;5.25;3.50;;;18.70;99.90;;;;;;5070522;29;20321;-67
2021/07/08 17:24:35;;;;;;;4.32;2.97;;;18.60;99.90;;;;;;5039552;29;20274;-65
2021/07/08 17:27:08;;;;;;;4.47;2.90;;;18.70;99.90;;;;;;5055000;29;20250;-66
2021/07/08 17:29:40;;;;;;;6.38;3.08;;;18.70;99.90;;;;;;5071041;29;20266;-63
2021/07/08 17:32:12;;;;;;;3.13;2.78;;;18.80;99.90;;;;;;5070694;29;20234;-65
2021/07/08 17:34:45;;;;;;;5.45;2.72;;;18.80;99.90;;;;;;5054379;29;20294;-64
2021/07/08 17:37:17;;;;;;;3.95;2.85;;;18.80;99.90;;;;;;5053865;29;20235;-63
2021/07/08 17:39:52;;;;;;;3.70;3.40;;;18.80;99.90;;;;;;5054523;29;20215;-63
2021/07/08 17:42:31;;;;;;;5.80;2.90;;;18.80;99.90;;;;;;5054994;29;20294;-64
2021/07/08 17:45:05;;;;;;;4.53;3.30;;;18.80;99.90;;;;;;5070246;29;20309;-65
2021/07/08 17:47:40;;;;;;;4.43;3.15;;;18.80;99.90;;;;;;5053871;29;20234;-66
2021/07/08 17:50:13;;;;;;;3.55;2.38;;;18.80;99.90;;;;;;5053726;29;20210;-64
2021/07/08 17:52:46;;;;;;;2.95;2.38;;;18.80;99.90;;;;;;5053711;29;20249;-66
2021/07/08 17:55:19;;;;;;;3.03;2.50;;;18.80;99.90;;;;;;5054206;29;20306;-66
2021/07/08 17:57:52;;;;;;;4.95;2.50;;;18.80;99.90;;;;;;5070310;29;20235;-65
2021/07/08 18:00:26;;;;;;;4.97;2.97;;;18.80;99.90;;;;;;5053829;29;20593;-66
2021/07/08 18:02:58;;;;;;;4.28;2.63;;;18.80;99.90;;;;;;5053626;29;20672;-63
2021/07/08 18:05:31;;;;;;;5.88;2.92;;;18.70;99.90;;;;;;5069916;29;20302;-66
2021/07/08 18:08:06;;;;;;;3.42;2.40;;;18.70;99.90;;;;;;5046728;29;20230;-67
2021/07/08 18:10:38;;;;;;;3.47;2.22;;;18.70;99.90;;;;;;5063628;29;20215;-66
2021/07/08 18:13:10;;;;;;;2.20;2.00;;;18.70;99.90;;;;;;5053412;29;20243;-63
2021/07/08 18:15:42;;;;;;;3.88;2.42;;;18.70;99.90;;;;;;5069836;29;20227;-65
2021/07/08 18:18:15;;;;;;;2.80;2.35;;;18.60;99.90;;;;;;5069761;29;20234;-64
2021/07/08 18:20:47;;;;;;;4.50;2.35;;;18.70;99.90;;;;;;5053463;29;20211;-65
2021/07/08 18:23:19;;;;;;;5.22;2.70;;;18.60;99.90;;;;;;5072599;29;20389;-62
2021/07/08 18:25:51;;;;;;;3.47;2.65;;;18.60;99.90;;;;;;5089418;29;20304;-65
2021/07/08 18:28:23;;;;;;;3.45;2.28;;;18.60;99.90;;;;;;5089001;29;20673;-64
2021/07/08 18:30:56;;;;;;;2.97;2.25;;;18.60;99.90;;;;;;5072680;29;20222;-68
2021/07/08 18:33:32;;;;;;;4.80;2.83;;;18.60;99.90;;;;;;5072698;29;20532;-65
2021/07/08 18:36:08;;;;;;;3.20;2.38;;;18.60;99.90;;;;;;5076247;29;20230;-66
2021/07/08 18:38:42;;;;;;;5.80;2.65;;;18.50;99.90;;;;;;5053541;29;20251;-67
2021/07/08 18:41:19;;;;;;;6.13;3.10;;;18.60;99.90;;;;;;5069277;29;20238;-68
2021/07/08 18:43:52;;;;;;;3.67;3.00;;;18.60;99.90;;;;;;5069210;29;20240;-66
2021/07/08 18:46:24;;;;;;;2.90;2.63;;;18.60;99.90;;;;;;5053160;29;20558;-64
2021/07/08 18:48:57;;;;;;;5.00;2.92;;;18.50;99.90;;;;;;5052525;29;20231;-64
2021/07/08 18:51:33;;;;;;;5.10;2.90;;;18.50;99.90;;;;;;5068884;29;20217;-66
2021/07/08 18:54:14;;;;;;;5.25;3.08;;;18.50;99.90;;;;;;5068693;29;20249;-66